Pagrindinis puslapis
METAR-TAF:

METAR-TAF

Oro uostai :

Komajagva, Hondūras

platuma: 14-23N, ilguma: 087-37W, Aukštis: 628 m

Dabartinis oras

Ataskaita buvo paskelbta 33 minutes, ne 00:07 UTC
Vėjas 13 kt iš Šiaurės/Šiaurės Vakarų
Temperatūra 30°C
Drėgmė 40%
Slėgis 1011 hPa
Matomumas 10 km arba daugiau
Giedras dangus

METAR: MHSC 290007Z AUTO 34013KT 9999 CLR 30/15 A2985 RMK AO2 WSHFT 2354 SLP070 $

Laikas: 18:40 (00:40 UTC)

Prognozė

Ataskaita buvo paskelbta 22 valandos ir 45 minutes, ne 01:55 UTC
Prognozė galioja nuo 28 metu 01 UTC su 29 metu 03 UTC
Vėjas 6 kt iš Rytų
Matomumas 10 km arba daugiau
Mažai debesys ne aukštis 9000 ft
Išsisklaidę debesys ne aukštis 15000 ft
Tapsmas
nuo 28 metu 16 UTC su 28 metu 17 UTC
Vėjas 12 kt iš Rytų/Šiaurės Rytų
Matomumas: 3013 m
Mažai debesys ne aukštis 15000 ft

TAF: MHSC 280155Z 2801/2903 08006KT 9999 FEW090 SCT150 QNH2988INS BECMG 2816/2817 07012KT 9999 FEW150 QNH2995INS TX36/2820Z TN16/2811Z LAST NO AMDS AFT 2802 NEXT 3013

Orai ataskaitas ir orų prognozės (METAR, TAF).

turimą stotys yra geltonos ir raudonos taškus žemėlapyje.

Perkelti pele per norėdami pamatyti stoties vardą.

Tada spustelėkite, norėdami matyti oro stebėjimo ir prognozės.

Norėdami pakeisti žemėlapį: spustelėkite ant žalios mygtukų su juodo kryžiaus žemyn,; žalią mygtuką su brūkšneliu, jei norite nutolinti; arba žalių rodyklių gretimoms žemėlapius.


METAR-TAF: